KMDH Weather | Aviation | SIU

Home
Southern Illinois University

CONTACT

SIU.EDU

Aviation - Weather

College of Applied Sciences and Arts

KMDH Weather

NOTICE: Although all weather products are taken from the National Weather Service, this data should be used only as a supplement to a formal weather briefing.

Last Updated: Saturday, November 28th, 2020, 11:26 pm
Information on this page is updated every 5 minutes.


METARS

KMDH 290452Z AUTO 00000KT 8SM CLR M01/M02 A3016 RMK AO2 SLP216 T10061022

KMDH 290352Z AUTO 00000KT 10SM CLR 01/M02 A3016 RMK AO2 SLP217 T00061022

KMDH 290252Z 00000KT 10SM CLR 01/M02 A3017 RMK AO2 SLP218 T00111017 56013

KMWA 290515Z AUTO 00000KT 10SM CLR M01/M03 A3017 RMK AO2 T10121026

KMWA 290455Z AUTO 00000KT 10SM CLR 00/M02 A3017 RMK AO2 T10041025

KMWA 290435Z AUTO 00000KT 10SM CLR 00/M03 A3018 RMK AO2 T10041027

KMWA 290415Z AUTO 00000KT 10SM CLR 00/M02 A3018 RMK AO2 T10011025

KMWA 290355Z AUTO 00000KT 10SM CLR 00/M02 A3018 RMK AO2 T10011019

KMWA 290335Z AUTO 21003KT 10SM CLR 00/M02 A3019 RMK AO2 T10011023

KMWA 290315Z AUTO 00000KT 10SM CLR 00/M01 A3018 RMK AO2 T00041015

KMWA 290255Z AUTO 00000KT 10SM CLR 00/M02 A3018 RMK AO2 T00001019

KMWA 290235Z AUTO 00000KT 10SM CLR 00/M02 A3018 RMK AO2 T00001016

KCGI 290453Z AUTO 00000KT 10SM CLR M01/M02 A3015 RMK AO2 SLP212 T10061022

KCGI 290353Z AUTO 00000KT 10SM CLR 01/M02 A3016 RMK AO2 SLP216 T00111017

KCGI 290253Z AUTO 00000KT 10SM CLR 02/M01 A3017 RMK AO2 SLP219 T00171011 55007

KSAR 290459Z AUTO 15004KT 10SM CLR 02/M01 A3017 RMK AO2

KSAR 290439Z AUTO 15004KT 10SM CLR 01/M01 A3016 RMK AO2

KSAR 290420Z AUTO 12003KT 10SM CLR 01/M01 A3016 RMK AO2

KSAR 290400Z AUTO 14003KT 10SM CLR 03/M01 A3017 RMK AO2

KSAR 290339Z AUTO 17003KT 10SM CLR 02/M01 A3017 RMK AO2

KSAR 290319Z AUTO 13003KT 10SM CLR 01/00 A3016 RMK AO2

KSAR 290259Z AUTO 14003KT 10SM CLR 01/00 A3017 RMK AO2

KSAR 290239Z AUTO 14003KT 10SM CLR 02/M01 A3017 RMK AO2

KFAM 290456Z AUTO 00000KT 10SM CLR 00/M01 A3016 RMK AO2 SLP229 T00001011 FZRANO

KFAM 290356Z AUTO 00000KT 10SM CLR 00/M01 A3015 RMK AO2 SLP226 T00001011 FZRANO

KFAM 290256Z AUTO 00000KT 10SM CLR 02/M01 A3016 RMK AO2 SLP228 T00221011 56010

KMVN 290456Z AUTO 00000KT 10SM CLR M02/M02 A3016 RMK AO2 SLP220 T10221022

KMVN 290356Z AUTO 00000KT 10SM CLR M02/M03 A3016 RMK AO2 SLP222 T10221033 FZRANO

KMVN 290256Z AUTO 00000KT 10SM CLR M02/M02 A3017 RMK AO2 SLP226 T10171022 58011

KHSB 290515Z AUTO 00000KT 10SM CLR 00/M03 A3018 RMK AO2 T10051026

KHSB 290455Z AUTO 00000KT 10SM CLR 00/M02 A3018 RMK AO2 T00001021

KHSB 290435Z AUTO 00000KT 10SM CLR 00/M02 A3018 RMK AO2 T10021023

KCIR 290515Z 10SM CLR 00/M02 A3016 RMK AO2 T00021020

KCIR 290455Z 10SM CLR 00/M02 A3016 RMK AO2 T00031018

KCIR 290435Z 10SM CLR 01/M02 A3016 RMK AO2 T00061022

KPAH 290453Z 00000KT 10SM CLR 00/M02 A3015 RMK AO2 SLP211 T00001022

KFAM 290456Z AUTO 00000KT 10SM CLR 00/M01 A3016 RMK AO2 SLP229 T00001011 FZRANO

KBLV 290456Z AUTO 00000KT 10SM CLR 01/M01 A3013 RMK AO2 VIS 1 1/8 RWY32R SLP209

KVIH 290453Z AUTO 18006KT 10SM CLR 04/M02 A3013 RMK AO2 SLP207 T00441022

KENL 290515Z AUTO 00000KT 3SM BR CLR 00/M01 A3014 RMK AO2 T10021009

KENL 290455Z AUTO 00000KT 5SM BR CLR 00/M01 A3014 RMK AO2 T00031008

KENL 290435Z AUTO 00000KT 10SM CLR 00/M01 A3015 RMK AO2 T00011007

KMTO 290453Z AUTO 19005KT 10SM CLR 03/M01 A3011 RMK AO2 SLP199 T00281006

KFWC 290515Z AUTO 00000KT 10SM CLR 00/M02 A3015 RMK AO1 T10041020

KFWC 290455Z AUTO 00000KT 10SM CLR 00/M02 A3014 RMK AO1 T00001023

KFWC 290435Z AUTO 00000KT 10SM CLR 00/M02 A3015 RMK AO1 T00001020

KCUL 290515Z AUTO 21003KT 10SM CLR M01/M02 A3016 RMK AO2

KCUL 290455Z AUTO 00000KT 10SM CLR 00/M01 A3016 RMK AO2

KCUL 290437Z AUTO 00000KT 10SM CLR 00/M02 A3016 RMK AO2

KEVV 290454Z AUTO 00000KT 8SM CLR 01/M03 A3017 RMK AO2 SLP217 T00061028

KCEY 290515Z AUTO 00000KT 10SM CLR 02/M03 A3016 RMK AO1

KCEY 290455Z AUTO 00000KT 10SM CLR 02/M03 A3016 RMK AO1

KCEY 290435Z AUTO 00000KT 10SM CLR 02/M03 A3015 RMK AO1

KHOP 290456Z 00000KT 10SM CLR 02/M02 A3016 RMK AO2A SLP218 T00161024

KARG 290456Z AUTO 35005KT 10SM CLR 02/01 A3016 RMK AO2 SLP216 T00220011 FZRANO

KJBR 290453Z AUTO 00000KT 10SM CLR 04/01 A3016 RMK AO2 SLP214 T00440006 TSNO $

KALN 290515Z AUTO 00000KT 10SM CLR 00/00 A3013 RMK AO2 T10011001 TSNO

KALN 290455Z AUTO 00000KT 10SM CLR 00/00 A3013 RMK AO2 T00000000

KALN 290435Z AUTO 00000KT 10SM CLR 01/00 A3014 RMK AO2 T00091001

KALN 290515Z AUTO 00000KT 10SM CLR 00/00 A3013 RMK AO2 T10011001 TSNO

KALN 290455Z AUTO 00000KT 10SM CLR 00/00 A3013 RMK AO2 T00000000

KALN 290435Z AUTO 00000KT 10SM CLR 01/00 A3014 RMK AO2 T00091001

KCOU 290454Z AUTO 19007KT 10SM CLR 03/M03 A3012 RMK AO2 SLP202 T00331033

KAJG 290455Z AUTO 00000KT 10SM CLR 00/M02 A3016 RMK AO2 T00021016

KAJG 290435Z AUTO 00000KT 10SM CLR 00/M01 A3016 RMK AO2 T00021012

KDEC 290454Z AUTO 23004KT 10SM CLR 03/M01 A3011 RMK AO2 SLP200 T00281006

KIJX 290455Z AUTO 00000KT 10SM CLR 03/00 A3010 RMK AO2 T00301005

KIJX 290435Z AUTO 00000KT 10SM CLR 03/M01 A3010 RMK AO2 T00291006


TAFS

KEVV 282320Z 2900/2924 00000KT P6SM SKC

        FM291500 VRB03KT P6SM BKN200


Winds Aloft



Pilot Reports

No pilot reports found for area.



Area Forecast



Significant Weather

WSUS32 KKCI 290355 SIGC CONVECTIVE SIGMET...NONE OUTLOOK VALID 290555-290955 FROM AEX-60SSW LEV-120SSW LCH-100SSE PSX-50WNW BRO-LRD-CRP-50W LFK-AEX WST ISSUANCES POSS. REFER TO MOST RECENT ACUS01 KWNS FROM STORM PREDICTION CENTER FOR SYNOPSIS AND METEOROLOGICAL DETAILS.
WSUS32 KKCI 290455 SIGC CONVECTIVE SIGMET...NONE OUTLOOK VALID 290655-291055 FROM AEX-60SSW LEV-120SSW LCH-100SSE PSX-50WNW BRO-LRD-CRP-50W LFK-AEX WST ISSUANCES POSS. REFER TO MOST RECENT ACUS01 KWNS FROM STORM PREDICTION CENTER FOR SYNOPSIS AND METEOROLOGICAL DETAILS.
WAUS44 KKCI 290245 DFWT WA 290245 AIRMET TANGO FOR TURB VALID UNTIL 290900 AIRMET TURB...OK TX AR TN LA MS AL NE KS IA MO IL IN KY FROM 40SSE IOW TO 30S FWA TO CVG TO HNN TO HMV TO GQO TO 50SW PZD TO 50ENE CEW TO MLU TO 20ESE TTT TO INK TO 30ESE TBE TO 50W LBL TO GLD TO 20NNW PWE TO 40SSE IOW MOD TURB BTN FL200 AND FL410. CONDS CONTG BYD 09Z THRU 15Z. OTLK VALID 0900-1500Z...TURB OK TX ND SD NE KS MN IA MO WI LM LS MI IL BOUNDED BY 30N INL-YQT-50ESE YQT-60WNW SSM-TVC-20ESE OKC-MAF-INK- 30ESE TBE-50W LBL-GLD-BFF-70SW RAP-50NNW ISN-30N INL MOD TURB BLW 140. CONDS CONTG THRU 15Z.
WAUS43 KKCI 290245 CHIT WA 290245 AIRMET TANGO FOR TURB STG WNDS AND LLWS VALID UNTIL 290900 AIRMET TURB...NE KS IA MO IL IN KY OK TX AR TN LA MS AL FROM 40SSE IOW TO 30S FWA TO CVG TO HNN TO HMV TO GQO TO 50SW PZD TO 50ENE CEW TO MLU TO 20ESE TTT TO INK TO 30ESE TBE TO 50W LBL TO GLD TO 20NNW PWE TO 40SSE IOW MOD TURB BTN FL200 AND FL410. CONDS CONTG BYD 09Z THRU 15Z. OTLK VALID 0900-1500Z AREA 1...TURB ND SD NE MN WI LS MI BOUNDED BY 30N INL-YQT-80ESE YQT-50WNW RHI-20SSE BFF-70SW RAP- 50NNW ISN-30N INL MOD TURB BTN FL180 AND FL310. CONDS CONTG THRU 15Z. AREA 2...TURB ND SD NE KS MN IA MO WI LM LS MI IL OK TX BOUNDED BY 30N INL-YQT-50ESE YQT-60WNW SSM-TVC-20ESE OKC-MAF-INK- 30ESE TBE-50W LBL-GLD-BFF-70SW RAP-50NNW ISN-30N INL MOD TURB BLW 140. CONDS CONTG THRU 15Z. AREA 3...STG SFC WNDS KS BOUNDED BY HLC-60ESE HLC-60WNW ICT-50SE GCK-30W GCK-HLC SUSTAINED SURFACE WINDS GTR THAN 30KT EXP. CONDS DVLPG 12-15Z. CONDS CONTG THRU 15Z.